sensor_id;sensor_type;location;lat;lon;timestamp;P1;durP1;ratioP1;P2;durP2;ratioP2
22939;SDS011;11636;52.086;5.090;2024-02-23T00:00:55;11.25;;;2.08;;
22939;SDS011;11636;52.086;5.090;2024-02-23T00:03:28;12.63;;;2.17;;
22939;SDS011;11636;52.086;5.090;2024-02-23T00:05:55;17.77;;;2.38;;
22939;SDS011;11636;52.086;5.090;2024-02-23T00:08:28;14.25;;;2.15;;
22939;SDS011;11636;52.086;5.090;2024-02-23T00:10:55;14.13;;;2.38;;
22939;SDS011;11636;52.086;5.090;2024-02-23T00:13:28;16.20;;;2.10;;
22939;SDS011;11636;52.086;5.090;2024-02-23T00:15:55;15.75;;;2.03;;
22939;SDS011;11636;52.086;5.090;2024-02-23T00:18:22;15.35;;;2.00;;
22939;SDS011;11636;52.086;5.090;2024-02-23T00:20:55;13.63;;;1.80;;
22939;SDS011;11636;52.086;5.090;2024-02-23T00:23:23;13.57;;;1.92;;
22939;SDS011;11636;52.086;5.090;2024-02-23T00:25:56;15.57;;;2.17;;
22939;SDS011;11636;52.086;5.090;2024-02-23T00:28:23;17.27;;;2.35;;
22939;SDS011;11636;52.086;5.090;2024-02-23T00:30:50;10.88;;;2.05;;
22939;SDS011;11636;52.086;5.090;2024-02-23T00:33:23;11.77;;;2.05;;
22939;SDS011;11636;52.086;5.090;2024-02-23T00:35:50;14.10;;;2.28;;
22939;SDS011;11636;52.086;5.090;2024-02-23T00:38:17;11.20;;;1.75;;
22939;SDS011;11636;52.086;5.090;2024-02-23T00:40:50;16.90;;;2.67;;
22939;SDS011;11636;52.086;5.090;2024-02-23T00:43:18;12.70;;;2.20;;
22939;SDS011;11636;52.086;5.090;2024-02-23T00:45:45;13.85;;;1.85;;
22939;SDS011;11636;52.086;5.090;2024-02-23T00:48:19;11.20;;;1.80;;
22939;SDS011;11636;52.086;5.090;2024-02-23T00:50:46;8.70;;;1.77;;
22939;SDS011;11636;52.086;5.090;2024-02-23T00:53:19;9.40;;;1.85;;
22939;SDS011;11636;52.086;5.090;2024-02-23T00:55:46;7.93;;;2.00;;
22939;SDS011;11636;52.086;5.090;2024-02-23T00:58:20;14.55;;;2.08;;
22939;SDS011;11636;52.086;5.090;2024-02-23T01:00:47;8.98;;;1.35;;
22939;SDS011;11636;52.086;5.090;2024-02-23T01:03:20;7.30;;;1.35;;
22939;SDS011;11636;52.086;5.090;2024-02-23T01:05:47;7.47;;;1.15;;
22939;SDS011;11636;52.086;5.090;2024-02-23T01:08:20;8.77;;;1.63;;
22939;SDS011;11636;52.086;5.090;2024-02-23T01:10:47;4.65;;;1.10;;
22939;SDS011;11636;52.086;5.090;2024-02-23T01:13:14;5.38;;;1.17;;
22939;SDS011;11636;52.086;5.090;2024-02-23T01:15:48;8.18;;;1.30;;
22939;SDS011;11636;52.086;5.090;2024-02-23T01:18:21;9.95;;;1.48;;
22939;SDS011;11636;52.086;5.090;2024-02-23T01:20:56;9.60;;;1.52;;
22939;SDS011;11636;52.086;5.090;2024-02-23T01:23:30;8.65;;;1.00;;
22939;SDS011;11636;52.086;5.090;2024-02-23T01:25:57;6.97;;;1.42;;
22939;SDS011;11636;52.086;5.090;2024-02-23T01:28:32;13.27;;;1.90;;
22939;SDS011;11636;52.086;5.090;2024-02-23T01:30:59;10.90;;;1.70;;
22939;SDS011;11636;52.086;5.090;2024-02-23T01:33:33;12.70;;;2.13;;
22939;SDS011;11636;52.086;5.090;2024-02-23T01:36:02;9.18;;;1.52;;
22939;SDS011;11636;52.086;5.090;2024-02-23T01:38:30;11.93;;;1.58;;
22939;SDS011;11636;52.086;5.090;2024-02-23T01:41:05;9.40;;;1.67;;
22939;SDS011;11636;52.086;5.090;2024-02-23T01:43:32;11.85;;;1.80;;
22939;SDS011;11636;52.086;5.090;2024-02-23T01:45:59;14.57;;;2.78;;
22939;SDS011;11636;52.086;5.090;2024-02-23T01:48:32;16.35;;;2.25;;
22939;SDS011;11636;52.086;5.090;2024-02-23T01:51:06;10.68;;;1.80;;
22939;SDS011;11636;52.086;5.090;2024-02-23T01:53:40;14.10;;;1.88;;
22939;SDS011;11636;52.086;5.090;2024-02-23T01:56:13;12.80;;;1.67;;
22939;SDS011;11636;52.086;5.090;2024-02-23T01:58:46;9.98;;;1.30;;
22939;SDS011;11636;52.086;5.090;2024-02-23T02:01:19;9.65;;;1.98;;
22939;SDS011;11636;52.086;5.090;2024-02-23T02:03:46;10.15;;;1.67;;
22939;SDS011;11636;52.086;5.090;2024-02-23T02:06:13;11.70;;;1.38;;
22939;SDS011;11636;52.086;5.090;2024-02-23T02:08:47;9.15;;;1.50;;
22939;SDS011;11636;52.086;5.090;2024-02-23T02:11:14;14.20;;;1.60;;
22939;SDS011;11636;52.086;5.090;2024-02-23T02:13:47;10.35;;;1.80;;
22939;SDS011;11636;52.086;5.090;2024-02-23T02:16:20;13.40;;;1.77;;
22939;SDS011;11636;52.086;5.090;2024-02-23T02:18:53;6.43;;;1.35;;
22939;SDS011;11636;52.086;5.090;2024-02-23T02:21:20;13.38;;;1.60;;
22939;SDS011;11636;52.086;5.090;2024-02-23T02:23:57;11.73;;;1.73;;
22939;SDS011;11636;52.086;5.090;2024-02-23T02:26:24;8.20;;;1.38;;
22939;SDS011;11636;52.086;5.090;2024-02-23T02:28:51;11.75;;;1.90;;
22939;SDS011;11636;52.086;5.090;2024-02-23T02:31:25;9.32;;;1.75;;
22939;SDS011;11636;52.086;5.090;2024-02-23T02:33:52;11.02;;;1.63;;
22939;SDS011;11636;52.086;5.090;2024-02-23T02:36:25;9.68;;;1.60;;
22939;SDS011;11636;52.086;5.090;2024-02-23T02:38:52;10.55;;;1.80;;
22939;SDS011;11636;52.086;5.090;2024-02-23T02:41:27;15.00;;;2.03;;
22939;SDS011;11636;52.086;5.090;2024-02-23T02:43:57;8.23;;;1.33;;
22939;SDS011;11636;52.086;5.090;2024-02-23T02:46:30;7.93;;;1.45;;
22939;SDS011;11636;52.086;5.090;2024-02-23T02:48:58;11.18;;;1.70;;
22939;SDS011;11636;52.086;5.090;2024-02-23T02:51:25;8.27;;;2.10;;
22939;SDS011;11636;52.086;5.090;2024-02-23T02:53:58;12.77;;;1.75;;
22939;SDS011;11636;52.086;5.090;2024-02-23T02:56:25;13.20;;;2.10;;
22939;SDS011;11636;52.086;5.090;2024-02-23T02:58:58;11.35;;;1.75;;
22939;SDS011;11636;52.086;5.090;2024-02-23T03:01:25;10.05;;;1.70;;
22939;SDS011;11636;52.086;5.090;2024-02-23T03:03:58;9.23;;;1.67;;
22939;SDS011;11636;52.086;5.090;2024-02-23T03:06:31;12.48;;;1.95;;
22939;SDS011;11636;52.086;5.090;2024-02-23T03:08:58;13.52;;;2.45;;
22939;SDS011;11636;52.086;5.090;2024-02-23T03:11:25;9.57;;;2.00;;
22939;SDS011;11636;52.086;5.090;2024-02-23T03:13:58;12.60;;;1.85;;
22939;SDS011;11636;52.086;5.090;2024-02-23T03:16:25;10.68;;;1.92;;
22939;SDS011;11636;52.086;5.090;2024-02-23T03:18:59;11.68;;;1.90;;
22939;SDS011;11636;52.086;5.090;2024-02-23T03:21:26;10.65;;;1.48;;
22939;SDS011;11636;52.086;5.090;2024-02-23T03:23:53;15.02;;;2.33;;
22939;SDS011;11636;52.086;5.090;2024-02-23T03:26:26;6.70;;;1.83;;
22939;SDS011;11636;52.086;5.090;2024-02-23T03:28:53;8.35;;;1.83;;
22939;SDS011;11636;52.086;5.090;2024-02-23T03:31:20;12.50;;;2.17;;
22939;SDS011;11636;52.086;5.090;2024-02-23T03:33:53;10.63;;;2.95;;
22939;SDS011;11636;52.086;5.090;2024-02-23T03:36:20;9.18;;;1.70;;
22939;SDS011;11636;52.086;5.090;2024-02-23T03:38:47;12.73;;;2.45;;
22939;SDS011;11636;52.086;5.090;2024-02-23T03:41:20;11.93;;;1.83;;
22939;SDS011;11636;52.086;5.090;2024-02-23T03:43:47;9.88;;;1.90;;
22939;SDS011;11636;52.086;5.090;2024-02-23T03:46:14;9.23;;;2.13;;
22939;SDS011;11636;52.086;5.090;2024-02-23T03:48:49;10.43;;;1.63;;
22939;SDS011;11636;52.086;5.090;2024-02-23T03:51:18;10.43;;;1.90;;
22939;SDS011;11636;52.086;5.090;2024-02-23T03:53:45;9.90;;;1.50;;
22939;SDS011;11636;52.086;5.090;2024-02-23T03:56:18;16.27;;;2.20;;
22939;SDS011;11636;52.086;5.090;2024-02-23T03:58:45;12.20;;;1.80;;
22939;SDS011;11636;52.086;5.090;2024-02-23T04:01:12;12.60;;;1.67;;
22939;SDS011;11636;52.086;5.090;2024-02-23T04:03:45;9.88;;;1.40;;
22939;SDS011;11636;52.086;5.090;2024-02-23T04:06:12;11.15;;;1.67;;
22939;SDS011;11636;52.086;5.090;2024-02-23T04:08:45;9.75;;;1.35;;
22939;SDS011;11636;52.086;5.090;2024-02-23T04:11:16;8.88;;;1.67;;
22939;SDS011;11636;52.086;5.090;2024-02-23T04:13:50;6.22;;;1.50;;
22939;SDS011;11636;52.086;5.090;2024-02-23T04:16:18;12.45;;;1.95;;
22939;SDS011;11636;52.086;5.090;2024-02-23T04:18:54;13.23;;;2.13;;
22939;SDS011;11636;52.086;5.090;2024-02-23T04:21:23;11.10;;;2.10;;
22939;SDS011;11636;52.086;5.090;2024-02-23T04:23:56;9.75;;;2.20;;
22939;SDS011;11636;52.086;5.090;2024-02-23T04:26:30;14.48;;;2.22;;
22939;SDS011;11636;52.086;5.090;2024-02-23T04:29:05;8.30;;;2.10;;
22939;SDS011;11636;52.086;5.090;2024-02-23T04:31:38;7.38;;;2.10;;
22939;SDS011;11636;52.086;5.090;2024-02-23T04:34:11;11.43;;;2.22;;
22939;SDS011;11636;52.086;5.090;2024-02-23T04:36:44;7.05;;;1.80;;
22939;SDS011;11636;52.086;5.090;2024-02-23T04:39:12;10.35;;;1.80;;
22939;SDS011;11636;52.086;5.090;2024-02-23T04:41:45;12.80;;;1.92;;
22939;SDS011;11636;52.086;5.090;2024-02-23T04:44:12;8.32;;;1.83;;
22939;SDS011;11636;52.086;5.090;2024-02-23T04:46:46;11.75;;;1.80;;
22939;SDS011;11636;52.086;5.090;2024-02-23T04:49:19;12.00;;;1.85;;
22939;SDS011;11636;52.086;5.090;2024-02-23T04:51:47;12.13;;;2.65;;
22939;SDS011;11636;52.086;5.090;2024-02-23T04:54:20;9.90;;;2.00;;
22939;SDS011;11636;52.086;5.090;2024-02-23T04:56:54;9.70;;;2.60;;
22939;SDS011;11636;52.086;5.090;2024-02-23T04:59:28;12.00;;;3.03;;
22939;SDS011;11636;52.086;5.090;2024-02-23T05:01:58;12.00;;;2.53;;
22939;SDS011;11636;52.086;5.090;2024-02-23T05:04:31;10.82;;;2.10;;
22939;SDS011;11636;52.086;5.090;2024-02-23T05:07:05;11.35;;;2.60;;
22939;SDS011;11636;52.086;5.090;2024-02-23T05:09:32;9.85;;;2.30;;
22939;SDS011;11636;52.086;5.090;2024-02-23T05:12:08;11.95;;;2.60;;
22939;SDS011;11636;52.086;5.090;2024-02-23T05:14:42;7.05;;;2.40;;
22939;SDS011;11636;52.086;5.090;2024-02-23T05:17:14;10.07;;;2.80;;
22939;SDS011;11636;52.086;5.090;2024-02-23T05:19:41;8.13;;;2.42;;
22939;SDS011;11636;52.086;5.090;2024-02-23T05:22:15;6.88;;;2.40;;
22939;SDS011;11636;52.086;5.090;2024-02-23T05:24:42;13.88;;;2.70;;
22939;SDS011;11636;52.086;5.090;2024-02-23T05:27:10;12.82;;;2.65;;
22939;SDS011;11636;52.086;5.090;2024-02-23T05:29:43;8.00;;;2.45;;
22939;SDS011;11636;52.086;5.090;2024-02-23T05:32:16;12.23;;;3.10;;
22939;SDS011;11636;52.086;5.090;2024-02-23T05:34:43;16.48;;;3.08;;
22939;SDS011;11636;52.086;5.090;2024-02-23T05:37:18;7.60;;;2.70;;
22939;SDS011;11636;52.086;5.090;2024-02-23T05:39:46;7.75;;;3.15;;
22939;SDS011;11636;52.086;5.090;2024-02-23T05:42:13;9.00;;;3.00;;
22939;SDS011;11636;52.086;5.090;2024-02-23T05:44:46;7.70;;;3.22;;
22939;SDS011;11636;52.086;5.090;2024-02-23T05:47:15;6.07;;;3.00;;
22939;SDS011;11636;52.086;5.090;2024-02-23T05:49:42;7.75;;;2.97;;
22939;SDS011;11636;52.086;5.090;2024-02-23T05:52:15;9.98;;;2.88;;
22939;SDS011;11636;52.086;5.090;2024-02-23T05:54:41;8.27;;;3.22;;
22939;SDS011;11636;52.086;5.090;2024-02-23T05:57:17;9.73;;;3.50;;
22939;SDS011;11636;52.086;5.090;2024-02-23T05:59:44;7.10;;;3.15;;
22939;SDS011;11636;52.086;5.090;2024-02-23T06:02:17;8.57;;;3.42;;
22939;SDS011;11636;52.086;5.090;2024-02-23T06:04:44;7.78;;;3.40;;
22939;SDS011;11636;52.086;5.090;2024-02-23T06:07:18;7.72;;;3.13;;
22939;SDS011;11636;52.086;5.090;2024-02-23T06:09:47;8.25;;;3.30;;
22939;SDS011;11636;52.086;5.090;2024-02-23T06:12:21;10.18;;;3.42;;
22939;SDS011;11636;52.086;5.090;2024-02-23T06:14:55;9.68;;;3.22;;
22939;SDS011;11636;52.086;5.090;2024-02-23T06:17:29;8.25;;;2.88;;
22939;SDS011;11636;52.086;5.090;2024-02-23T06:20:03;6.65;;;2.70;;
22939;SDS011;11636;52.086;5.090;2024-02-23T06:22:38;9.18;;;2.40;;
22939;SDS011;11636;52.086;5.090;2024-02-23T06:25:04;6.55;;;2.33;;
22939;SDS011;11636;52.086;5.090;2024-02-23T06:27:31;8.95;;;2.40;;
22939;SDS011;11636;52.086;5.090;2024-02-23T06:30:06;11.02;;;2.63;;
22939;SDS011;11636;52.086;5.090;2024-02-23T06:32:40;6.43;;;2.35;;
22939;SDS011;11636;52.086;5.090;2024-02-23T06:35:13;5.55;;;2.45;;
22939;SDS011;11636;52.086;5.090;2024-02-23T06:37:41;10.82;;;2.85;;
22939;SDS011;11636;52.086;5.090;2024-02-23T06:40:14;7.40;;;2.20;;
22939;SDS011;11636;52.086;5.090;2024-02-23T06:42:41;7.25;;;2.38;;
22939;SDS011;11636;52.086;5.090;2024-02-23T06:45:14;6.25;;;2.00;;
22939;SDS011;11636;52.086;5.090;2024-02-23T06:47:40;6.00;;;1.90;;
22939;SDS011;11636;52.086;5.090;2024-02-23T06:50:15;5.65;;;1.95;;
22939;SDS011;11636;52.086;5.090;2024-02-23T06:52:48;4.93;;;1.90;;
22939;SDS011;11636;52.086;5.090;2024-02-23T06:55:22;7.20;;;2.35;;
22939;SDS011;11636;52.086;5.090;2024-02-23T06:57:48;4.13;;;1.63;;
22939;SDS011;11636;52.086;5.090;2024-02-23T07:00:22;11.57;;;2.45;;
22939;SDS011;11636;52.086;5.090;2024-02-23T07:02:48;6.07;;;2.08;;
22939;SDS011;11636;52.086;5.090;2024-02-23T07:05:15;8.50;;;2.10;;
22939;SDS011;11636;52.086;5.090;2024-02-23T07:07:49;8.32;;;2.13;;
22939;SDS011;11636;52.086;5.090;2024-02-23T07:10:22;7.07;;;2.10;;
22939;SDS011;11636;52.086;5.090;2024-02-23T07:12:58;6.45;;;1.88;;
22939;SDS011;11636;52.086;5.090;2024-02-23T07:15:33;8.13;;;1.80;;
22939;SDS011;11636;52.086;5.090;2024-02-23T07:18:08;7.78;;;2.10;;
22939;SDS011;11636;52.086;5.090;2024-02-23T07:20:35;8.18;;;1.67;;
22939;SDS011;11636;52.086;5.090;2024-02-23T07:23:09;7.03;;;2.00;;
22939;SDS011;11636;52.086;5.090;2024-02-23T07:25:36;7.90;;;1.42;;
22939;SDS011;11636;52.086;5.090;2024-02-23T07:28:10;5.88;;;2.03;;
22939;SDS011;11636;52.086;5.090;2024-02-23T07:30:36;7.90;;;1.27;;
22939;SDS011;11636;52.086;5.090;2024-02-23T07:33:03;11.07;;;1.85;;
22939;SDS011;11636;52.086;5.090;2024-02-23T07:35:37;11.15;;;1.50;;
22939;SDS011;11636;52.086;5.090;2024-02-23T07:38:04;7.30;;;1.85;;
22939;SDS011;11636;52.086;5.090;2024-02-23T07:40:37;7.13;;;1.58;;
22939;SDS011;11636;52.086;5.090;2024-02-23T07:43:05;7.30;;;1.35;;
22939;SDS011;11636;52.086;5.090;2024-02-23T07:45:38;4.78;;;0.90;;
22939;SDS011;11636;52.086;5.090;2024-02-23T07:48:11;7.10;;;1.30;;
22939;SDS011;11636;52.086;5.090;2024-02-23T07:50:45;8.02;;;1.20;;
22939;SDS011;11636;52.086;5.090;2024-02-23T07:53:18;8.20;;;1.83;;
22939;SDS011;11636;52.086;5.090;2024-02-23T07:55:44;7.60;;;1.50;;
22939;SDS011;11636;52.086;5.090;2024-02-23T07:58:18;6.53;;;1.20;;
22939;SDS011;11636;52.086;5.090;2024-02-23T08:00:52;9.57;;;1.50;;
22939;SDS011;11636;52.086;5.090;2024-02-23T08:03:19;10.75;;;2.25;;
22939;SDS011;11636;52.086;5.090;2024-02-23T08:05:53;6.65;;;1.45;;
22939;SDS011;11636;52.086;5.090;2024-02-23T08:08:20;7.78;;;1.50;;
22939;SDS011;11636;52.086;5.090;2024-02-23T08:10:49;5.50;;;1.40;;
22939;SDS011;11636;52.086;5.090;2024-02-23T08:13:22;7.72;;;1.55;;
22939;SDS011;11636;52.086;5.090;2024-02-23T08:15:49;8.70;;;1.48;;
22939;SDS011;11636;52.086;5.090;2024-02-23T08:18:22;5.95;;;1.65;;
22939;SDS011;11636;52.086;5.090;2024-02-23T08:20:51;9.32;;;1.58;;
22939;SDS011;11636;52.086;5.090;2024-02-23T08:23:24;9.95;;;1.33;;
22939;SDS011;11636;52.086;5.090;2024-02-23T08:25:51;7.57;;;1.75;;
22939;SDS011;11636;52.086;5.090;2024-02-23T08:28:20;7.03;;;1.25;;
22939;SDS011;11636;52.086;5.090;2024-02-23T08:30:53;7.97;;;1.63;;
22939;SDS011;11636;52.086;5.090;2024-02-23T08:33:20;8.00;;;1.77;;
22939;SDS011;11636;52.086;5.090;2024-02-23T08:35:47;9.38;;;1.67;;
22939;SDS011;11636;52.086;5.090;2024-02-23T08:38:23;10.93;;;2.00;;
22939;SDS011;11636;52.086;5.090;2024-02-23T08:40:50;4.75;;;1.55;;
22939;SDS011;11636;52.086;5.090;2024-02-23T08:43:17;6.80;;;2.00;;
22939;SDS011;11636;52.086;5.090;2024-02-23T08:45:50;10.55;;;2.45;;
22939;SDS011;11636;52.086;5.090;2024-02-23T08:48:17;10.75;;;1.73;;
22939;SDS011;11636;52.086;5.090;2024-02-23T08:50:51;9.82;;;2.30;;
22939;SDS011;11636;52.086;5.090;2024-02-23T08:53:18;8.65;;;1.73;;
22939;SDS011;11636;52.086;5.090;2024-02-23T08:55:51;8.80;;;2.08;;
22939;SDS011;11636;52.086;5.090;2024-02-23T08:58:24;11.10;;;2.30;;
22939;SDS011;11636;52.086;5.090;2024-02-23T09:00:51;9.88;;;2.20;;
22939;SDS011;11636;52.086;5.090;2024-02-23T09:03:24;6.88;;;2.28;;
22939;SDS011;11636;52.086;5.090;2024-02-23T09:05:51;9.07;;;1.73;;
22939;SDS011;11636;52.086;5.090;2024-02-23T09:08:24;8.23;;;2.13;;
22939;SDS011;11636;52.086;5.090;2024-02-23T09:10:51;11.52;;;2.15;;
22939;SDS011;11636;52.086;5.090;2024-02-23T09:13:24;9.52;;;1.92;;
22939;SDS011;11636;52.086;5.090;2024-02-23T09:15:59;8.85;;;2.20;;
22939;SDS011;11636;52.086;5.090;2024-02-23T09:18:26;9.63;;;2.40;;
22939;SDS011;11636;52.086;5.090;2024-02-23T09:21:00;5.40;;;2.03;;
22939;SDS011;11636;52.086;5.090;2024-02-23T09:23:27;9.43;;;1.73;;
22939;SDS011;11636;52.086;5.090;2024-02-23T09:26:00;7.38;;;1.52;;
22939;SDS011;11636;52.086;5.090;2024-02-23T09:28:29;7.68;;;1.67;;
22939;SDS011;11636;52.086;5.090;2024-02-23T09:31:03;13.50;;;2.50;;
22939;SDS011;11636;52.086;5.090;2024-02-23T09:33:31;9.27;;;2.00;;
22939;SDS011;11636;52.086;5.090;2024-02-23T09:36:04;7.20;;;2.17;;
22939;SDS011;11636;52.086;5.090;2024-02-23T09:38:31;7.82;;;1.60;;
22939;SDS011;11636;52.086;5.090;2024-02-23T09:41:05;7.78;;;1.90;;
22939;SDS011;11636;52.086;5.090;2024-02-23T09:43:44;9.45;;;1.90;;
22939;SDS011;11636;52.086;5.090;2024-02-23T09:46:19;7.70;;;1.90;;
22939;SDS011;11636;52.086;5.090;2024-02-23T09:48:47;6.20;;;1.65;;
22939;SDS011;11636;52.086;5.090;2024-02-23T09:51:16;8.07;;;2.00;;
22939;SDS011;11636;52.086;5.090;2024-02-23T09:53:50;6.07;;;1.42;;
22939;SDS011;11636;52.086;5.090;2024-02-23T09:56:18;5.75;;;1.45;;
22939;SDS011;11636;52.086;5.090;2024-02-23T09:58:52;9.20;;;1.95;;
22939;SDS011;11636;52.086;5.090;2024-02-23T10:01:24;4.25;;;1.48;;
22939;SDS011;11636;52.086;5.090;2024-02-23T10:04:01;7.85;;;1.88;;
22939;SDS011;11636;52.086;5.090;2024-02-23T10:06:31;4.97;;;1.50;;
22939;SDS011;11636;52.086;5.090;2024-02-23T10:09:05;7.28;;;1.77;;
22939;SDS011;11636;52.086;5.090;2024-02-23T10:11:39;7.22;;;1.83;;
22939;SDS011;11636;52.086;5.090;2024-02-23T10:14:13;8.43;;;1.42;;
22939;SDS011;11636;52.086;5.090;2024-02-23T10:16:40;9.05;;;1.70;;
22939;SDS011;11636;52.086;5.090;2024-02-23T10:19:13;6.65;;;1.70;;
22939;SDS011;11636;52.086;5.090;2024-02-23T10:21:40;7.75;;;1.65;;
22939;SDS011;11636;52.086;5.090;2024-02-23T10:24:07;9.50;;;2.17;;
22939;SDS011;11636;52.086;5.090;2024-02-23T10:26:40;4.43;;;1.50;;
22939;SDS011;11636;52.086;5.090;2024-02-23T10:29:07;6.97;;;1.88;;
22939;SDS011;11636;52.086;5.090;2024-02-23T10:31:44;9.30;;;1.83;;
22939;SDS011;11636;52.086;5.090;2024-02-23T10:34:17;4.63;;;1.55;;
22939;SDS011;11636;52.086;5.090;2024-02-23T10:36:52;7.93;;;2.20;;
22939;SDS011;11636;52.086;5.090;2024-02-23T10:39:20;7.10;;;1.90;;
22939;SDS011;11636;52.086;5.090;2024-02-23T10:41:56;6.32;;;2.15;;
22939;SDS011;11636;52.086;5.090;2024-02-23T10:44:34;8.05;;;1.80;;
22939;SDS011;11636;52.086;5.090;2024-02-23T10:47:04;6.65;;;1.70;;
22939;SDS011;11636;52.086;5.090;2024-02-23T10:49:38;7.90;;;1.90;;
22939;SDS011;11636;52.086;5.090;2024-02-23T10:52:06;7.25;;;1.70;;
22939;SDS011;11636;52.086;5.090;2024-02-23T10:54:35;8.57;;;2.10;;
22939;SDS011;11636;52.086;5.090;2024-02-23T10:57:09;8.35;;;1.80;;
22939;SDS011;11636;52.086;5.090;2024-02-23T10:59:37;7.05;;;2.00;;
22939;SDS011;11636;52.086;5.090;2024-02-23T11:02:11;6.47;;;1.77;;
22939;SDS011;11636;52.086;5.090;2024-02-23T11:04:42;7.82;;;2.10;;
22939;SDS011;11636;52.086;5.090;2024-02-23T11:07:19;5.57;;;1.65;;
22939;SDS011;11636;52.086;5.090;2024-02-23T11:09:53;7.07;;;2.10;;
22939;SDS011;11636;52.086;5.090;2024-02-23T11:12:31;10.68;;;2.17;;
22939;SDS011;11636;52.086;5.090;2024-02-23T11:15:00;6.88;;;1.75;;
22939;SDS011;11636;52.086;5.090;2024-02-23T11:17:35;7.15;;;1.60;;
22939;SDS011;11636;52.086;5.090;2024-02-23T11:20:06;12.25;;;2.92;;
22939;SDS011;11636;52.086;5.090;2024-02-23T11:22:56;8.63;;;1.85;;
22939;SDS011;11636;52.086;5.090;2024-02-23T11:25:26;5.47;;;1.80;;
22939;SDS011;11636;52.086;5.090;2024-02-23T11:28:00;6.30;;;1.67;;
22939;SDS011;11636;52.086;5.090;2024-02-23T11:30:27;7.40;;;2.13;;
22939;SDS011;11636;52.086;5.090;2024-02-23T11:33:07;6.47;;;1.88;;
22939;SDS011;11636;52.086;5.090;2024-02-23T11:35:34;5.53;;;1.70;;
22939;SDS011;11636;52.086;5.090;2024-02-23T11:38:08;6.60;;;1.83;;
22939;SDS011;11636;52.086;5.090;2024-02-23T11:40:35;9.80;;;2.13;;
22939;SDS011;11636;52.086;5.090;2024-02-23T11:43:03;8.43;;;2.00;;
22939;SDS011;11636;52.086;5.090;2024-02-23T11:45:38;6.95;;;2.00;;
22939;SDS011;11636;52.086;5.090;2024-02-23T11:48:06;7.22;;;1.90;;
22939;SDS011;11636;52.086;5.090;2024-02-23T11:50:40;9.30;;;2.03;;
22939;SDS011;11636;52.086;5.090;2024-02-23T11:53:08;6.10;;;1.60;;
22939;SDS011;11636;52.086;5.090;2024-02-23T11:55:41;6.53;;;2.00;;
22939;SDS011;11636;52.086;5.090;2024-02-23T11:58:08;9.25;;;1.60;;
22939;SDS011;11636;52.086;5.090;2024-02-23T12:00:44;6.38;;;1.50;;
22939;SDS011;11636;52.086;5.090;2024-02-23T12:03:18;6.97;;;1.95;;
22939;SDS011;11636;52.086;5.090;2024-02-23T12:05:51;7.78;;;1.85;;
22939;SDS011;11636;52.086;5.090;2024-02-23T12:08:25;6.00;;;1.67;;
22939;SDS011;11636;52.086;5.090;2024-02-23T12:10:59;6.35;;;1.90;;
22939;SDS011;11636;52.086;5.090;2024-02-23T12:13:27;9.43;;;1.90;;
22939;SDS011;11636;52.086;5.090;2024-02-23T12:16:00;8.75;;;2.00;;
22939;SDS011;11636;52.086;5.090;2024-02-23T12:18:34;7.10;;;1.73;;
22939;SDS011;11636;52.086;5.090;2024-02-23T12:21:08;6.35;;;1.70;;
22939;SDS011;11636;52.086;5.090;2024-02-23T12:23:39;6.97;;;2.05;;
22939;SDS011;11636;52.086;5.090;2024-02-23T12:26:14;9.55;;;1.70;;
22939;SDS011;11636;52.086;5.090;2024-02-23T12:28:42;7.20;;;1.70;;
22939;SDS011;11636;52.086;5.090;2024-02-23T12:31:10;5.70;;;1.55;;
22939;SDS011;11636;52.086;5.090;2024-02-23T12:33:44;7.10;;;1.63;;
22939;SDS011;11636;52.086;5.090;2024-02-23T12:36:20;8.02;;;1.70;;
22939;SDS011;11636;52.086;5.090;2024-02-23T12:38:49;6.53;;;1.40;;
22939;SDS011;11636;52.086;5.090;2024-02-23T12:41:22;5.63;;;1.63;;
22939;SDS011;11636;52.086;5.090;2024-02-23T12:43:56;8.13;;;1.58;;
22939;SDS011;11636;52.086;5.090;2024-02-23T12:46:29;7.22;;;1.55;;
22939;SDS011;11636;52.086;5.090;2024-02-23T12:48:56;7.80;;;1.58;;
22939;SDS011;11636;52.086;5.090;2024-02-23T12:51:25;4.43;;;1.42;;
22939;SDS011;11636;52.086;5.090;2024-02-23T12:53:59;5.60;;;1.55;;
22939;SDS011;11636;52.086;5.090;2024-02-23T12:56:26;5.28;;;1.30;;
22939;SDS011;11636;52.086;5.090;2024-02-23T12:59:00;9.75;;;1.85;;
22939;SDS011;11636;52.086;5.090;2024-02-23T13:01:27;5.18;;;1.55;;
22939;SDS011;11636;52.086;5.090;2024-02-23T13:04:07;5.55;;;1.42;;
22939;SDS011;11636;52.086;5.090;2024-02-23T13:06:39;5.28;;;1.50;;
22939;SDS011;11636;52.086;5.090;2024-02-23T13:09:19;7.65;;;1.58;;
22939;SDS011;11636;52.086;5.090;2024-02-23T13:11:46;8.00;;;1.65;;
22939;SDS011;11636;52.086;5.090;2024-02-23T13:14:20;6.80;;;1.45;;
22939;SDS011;11636;52.086;5.090;2024-02-23T13:16:47;4.88;;;1.45;;
22939;SDS011;11636;52.086;5.090;2024-02-23T13:19:14;7.72;;;1.55;;
22939;SDS011;11636;52.086;5.090;2024-02-23T13:21:47;6.20;;;1.60;;
22939;SDS011;11636;52.086;5.090;2024-02-23T13:24:14;8.30;;;1.60;;
22939;SDS011;11636;52.086;5.090;2024-02-23T13:26:53;7.53;;;1.67;;
22939;SDS011;11636;52.086;5.090;2024-02-23T13:29:20;8.50;;;1.38;;
22939;SDS011;11636;52.086;5.090;2024-02-23T13:31:47;5.90;;;1.20;;
22939;SDS011;11636;52.086;5.090;2024-02-23T13:34:20;3.67;;;1.05;;
22939;SDS011;11636;52.086;5.090;2024-02-23T13:36:50;7.45;;;1.10;;
22939;SDS011;11636;52.086;5.090;2024-02-23T13:39:18;4.75;;;1.27;;
22939;SDS011;11636;52.086;5.090;2024-02-23T13:41:54;4.05;;;1.10;;
22939;SDS011;11636;52.086;5.090;2024-02-23T13:44:21;3.65;;;1.00;;
22939;SDS011;11636;52.086;5.090;2024-02-23T13:46:54;4.20;;;1.10;;
22939;SDS011;11636;52.086;5.090;2024-02-23T13:49:22;6.75;;;1.67;;
22939;SDS011;11636;52.086;5.090;2024-02-23T13:52:03;4.75;;;1.00;;
22939;SDS011;11636;52.086;5.090;2024-02-23T13:54:29;5.72;;;1.48;;
22939;SDS011;11636;52.086;5.090;2024-02-23T13:57:03;5.47;;;1.10;;
22939;SDS011;11636;52.086;5.090;2024-02-23T13:59:30;3.72;;;1.27;;
22939;SDS011;11636;52.086;5.090;2024-02-23T14:02:04;4.30;;;1.58;;
22939;SDS011;11636;52.086;5.090;2024-02-23T14:04:37;5.35;;;1.45;;
22939;SDS011;11636;52.086;5.090;2024-02-23T14:07:10;5.25;;;1.50;;
22939;SDS011;11636;52.086;5.090;2024-02-23T14:09:43;4.88;;;1.40;;
22939;SDS011;11636;52.086;5.090;2024-02-23T14:12:10;6.10;;;1.40;;
22939;SDS011;11636;52.086;5.090;2024-02-23T14:14:37;6.10;;;1.30;;
22939;SDS011;11636;52.086;5.090;2024-02-23T14:17:10;4.22;;;1.50;;
22939;SDS011;11636;52.086;5.090;2024-02-23T14:19:44;4.65;;;1.30;;
22939;SDS011;11636;52.086;5.090;2024-02-23T14:22:17;5.80;;;1.20;;
22939;SDS011;11636;52.086;5.090;2024-02-23T14:24:51;4.28;;;1.10;;
22939;SDS011;11636;52.086;5.090;2024-02-23T14:27:18;4.63;;;1.15;;
22939;SDS011;11636;52.086;5.090;2024-02-23T14:29:54;4.47;;;0.98;;
22939;SDS011;11636;52.086;5.090;2024-02-23T14:32:27;5.40;;;1.15;;
22939;SDS011;11636;52.086;5.090;2024-02-23T14:34:55;3.78;;;1.38;;
22939;SDS011;11636;52.086;5.090;2024-02-23T14:37:30;5.90;;;0.90;;
22939;SDS011;11636;52.086;5.090;2024-02-23T14:39:57;3.28;;;0.80;;
22939;SDS011;11636;52.086;5.090;2024-02-23T14:42:30;2.30;;;0.80;;
22939;SDS011;11636;52.086;5.090;2024-02-23T14:44:57;3.55;;;0.98;;
22939;SDS011;11636;52.086;5.090;2024-02-23T14:47:24;3.72;;;0.80;;
22939;SDS011;11636;52.086;5.090;2024-02-23T14:50:10;3.22;;;0.90;;
22939;SDS011;11636;52.086;5.090;2024-02-23T14:52:43;4.18;;;0.90;;
22939;SDS011;11636;52.086;5.090;2024-02-23T14:55:10;2.20;;;0.68;;
22939;SDS011;11636;52.086;5.090;2024-02-23T14:57:38;4.45;;;0.90;;
22939;SDS011;11636;52.086;5.090;2024-02-23T15:00:11;3.25;;;1.05;;
22939;SDS011;11636;52.086;5.090;2024-02-23T15:02:39;1.92;;;0.70;;
22939;SDS011;11636;52.086;5.090;2024-02-23T15:05:12;4.07;;;1.10;;